Time;durP1;ratioP1;P1;durP2;ratioP2;P2;SDS_P1;SDS_P2;PMS_P1;PMS_P2;Temp;Humidity;BMP_temperature;BMP_pressure;BME280_temperature;BME280_humidity;BME280_pressure;Samples;Min_cycle;Max_cycle;Signal;HPM_P1;HPM_P2
2022/09/29 00:00:23;;;;;;;4.57;3.57;;;;;;;;;;5098538;28;20456;-79
2022/09/29 00:02:49;;;;;;;3.27;2.90;;;;;;;;;;5099843;28;20420;-79
2022/09/29 00:05:15;;;;;;;10.37;4.10;;;;;;;;;;5099857;28;20409;-79
2022/09/29 00:07:41;;;;;;;4.20;4.00;;;;;;;;;;5099730;28;20411;-79
2022/09/29 00:10:07;;;;;;;4.17;3.97;;;;;;;;;;5099754;28;20401;-80
2022/09/29 00:12:33;;;;;;;8.30;3.27;;;;;;;;;;5099807;28;20424;-79
2022/09/29 00:14:59;;;;;;;3.60;3.30;;;;;;;;;;5096326;28;20413;-79
2022/09/29 00:17:25;;;;;;;3.50;3.27;;;;;;;;;;5096521;28;20409;-79
2022/09/29 00:19:51;;;;;;;2.83;2.73;;;;;;;;;;5096385;28;20413;-79
2022/09/29 00:22:17;;;;;;;3.37;3.27;;;;;;;;;;5096504;28;20419;-79
2022/09/29 00:24:43;;;;;;;4.30;3.40;;;;;;;;;;5096408;28;20401;-79
2022/09/29 00:27:08;;;;;;;5.00;3.10;;;;;;;;;;5096365;28;20455;-80
2022/09/29 00:29:34;;;;;;;3.87;3.77;;;;;;;;;;5096262;28;20778;-79
2022/09/29 00:32:00;;;;;;;3.77;3.57;;;;;;;;;;5096183;28;20769;-79
2022/09/29 00:34:27;;;;;;;4.33;3.90;;;;;;;;;;5096219;28;20417;-79
2022/09/29 00:36:53;;;;;;;4.23;3.40;;;;;;;;;;5094838;28;20421;-79
2022/09/29 00:39:18;;;;;;;3.50;3.37;;;;;;;;;;5096056;28;20412;-79
2022/09/29 00:41:44;;;;;;;4.33;3.43;;;;;;;;;;5095995;28;20989;-79
2022/09/29 00:44:13;;;;;;;3.77;3.50;;;;;;;;;;5094566;28;20442;-79
2022/09/29 00:46:53;;;;;;;9.33;3.50;;;;;;;;;;5095934;28;20481;-79
2022/09/29 00:49:19;;;;;;;3.10;3.10;;;;;;;;;;5095948;28;20769;-79
2022/09/29 00:51:48;;;;;;;3.23;3.10;;;;;;;;;;5094566;28;20409;-79
2022/09/29 00:54:16;;;;;;;6.30;3.40;;;;;;;;;;5095871;28;20436;-79
2022/09/29 00:56:42;;;;;;;3.13;3.03;;;;;;;;;;5095766;28;20934;-79
2022/09/29 00:59:10;;;;;;;6.10;2.80;;;;;;;;;;5095681;28;20919;-79
2022/09/29 01:01:36;;;;;;;6.63;3.80;;;;;;;;;;5096152;28;20460;-79
2022/09/29 01:04:09;;;;;;;4.10;3.80;;;;;;;;;;5096923;28;20436;-79
2022/09/29 01:06:38;;;;;;;9.33;3.80;;;;;;;;;;5097016;28;20739;-79
2022/09/29 01:09:06;;;;;;;8.23;4.30;;;;;;;;;;5096722;28;20405;-79
2022/09/29 01:11:32;;;;;;;4.53;4.07;;;;;;;;;;5096806;28;20424;-79
2022/09/29 01:14:02;;;;;;;4.50;4.20;;;;;;;;;;5095580;28;20993;-79
2022/09/29 01:16:29;;;;;;;6.07;4.20;;;;;;;;;;5096837;28;20496;-79
2022/09/29 01:18:55;;;;;;;4.87;3.93;;;;;;;;;;5096862;28;20405;-79
2022/09/29 01:21:29;;;;;;;3.90;3.60;;;;;;;;;;5096879;28;20513;-79
2022/09/29 01:24:07;;;;;;;3.63;3.40;;;;;;;;;;5096719;28;20398;-79
2022/09/29 01:26:52;;;;;;;3.50;3.03;;;;;;;;;;5094158;28;20436;-79
2022/09/29 01:29:30;;;;;;;3.90;3.63;;;;;;;;;;5095121;28;20451;-79
2022/09/29 01:32:17;;;;;;;4.03;3.83;;;;;;;;;;5095062;28;20413;-79
2022/09/29 01:34:55;;;;;;;3.67;3.57;;;;;;;;;;5094987;28;20470;-79
2022/09/29 01:37:38;;;;;;;4.20;4.10;;;;;;;;;;5094834;28;20484;-79
2022/09/29 01:40:13;;;;;;;4.20;3.90;;;;;;;;;;5093523;28;20521;-79
2022/09/29 01:42:46;;;;;;;4.17;4.07;;;;;;;;;;5094668;28;20941;-79
2022/09/29 01:45:18;;;;;;;3.40;3.30;;;;;;;;;;5094826;28;20428;-79
2022/09/29 01:47:48;;;;;;;4.30;3.90;;;;;;;;;;5093788;28;20454;-79
2022/09/29 01:50:19;;;;;;;4.23;4.03;;;;;;;;;;5094757;28;20443;-79
2022/09/29 01:52:47;;;;;;;6.30;3.30;;;;;;;;;;5093600;28;20721;-79
2022/09/29 01:55:16;;;;;;;9.40;3.60;;;;;;;;;;5094601;28;20464;-79
2022/09/29 01:57:44;;;;;;;3.63;3.43;;;;;;;;;;5094895;28;20405;-79
2022/09/29 02:00:12;;;;;;;3.90;3.60;;;;;;;;;;5094539;28;20530;-79
2022/09/29 02:02:50;;;;;;;4.23;3.77;;;;;;;;;;5094510;28;20409;-79
2022/09/29 02:05:21;;;;;;;4.20;3.80;;;;;;;;;;5094560;28;20428;-79
2022/09/29 02:07:48;;;;;;;3.83;3.73;;;;;;;;;;5093113;28;20429;-79
2022/09/29 02:10:25;;;;;;;3.73;3.37;;;;;;;;;;5094436;28;20405;-79
2022/09/29 02:12:55;;;;;;;3.67;3.47;;;;;;;;;;5094329;28;20404;-79
2022/09/29 02:15:25;;;;;;;4.13;3.70;;;;;;;;;;5094341;28;20398;-79
2022/09/29 02:17:54;;;;;;;3.87;3.60;;;;;;;;;;5092987;28;20432;-79
2022/09/29 02:20:21;;;;;;;3.50;3.30;;;;;;;;;;5092820;28;20987;-79
2022/09/29 02:22:47;;;;;;;3.33;3.23;;;;;;;;;;5092841;28;20474;-78
2022/09/29 02:25:15;;;;;;;3.77;3.60;;;;;;;;;;5094035;28;20831;-79
2022/09/29 02:27:41;;;;;;;6.87;4.27;;;;;;;;;;5092910;28;20500;-79
2022/09/29 02:30:08;;;;;;;5.50;3.53;;;;;;;;;;5093896;28;20424;-79
2022/09/29 02:32:35;;;;;;;3.33;3.23;;;;;;;;;;5093953;28;20401;-79
2022/09/29 02:35:02;;;;;;;7.00;3.03;;;;;;;;;;5093932;28;20488;-79
2022/09/29 02:37:35;;;;;;;5.73;3.57;;;;;;;;;;5092190;28;20421;-78
2022/09/29 02:40:24;;;;;;;3.20;3.10;;;;;;;;;;5093782;28;20467;-79
2022/09/29 02:42:58;;;;;;;3.77;3.47;;;;;;;;;;5093825;28;20775;-79
2022/09/29 02:45:43;;;;;;;4.20;4.00;;;;;;;;;;5093813;28;20799;-79
2022/09/29 02:48:11;;;;;;;4.40;4.10;;;;;;;;;;5093707;28;20412;-79
2022/09/29 02:50:56;;;;;;;3.60;3.30;;;;;;;;;;5093744;28;20412;-79
2022/09/29 02:53:41;;;;;;;7.77;3.87;;;;;;;;;;5093601;28;20404;-79
2022/09/29 02:56:14;;;;;;;6.87;3.60;;;;;;;;;;5093435;28;20974;-79
2022/09/29 02:58:45;;;;;;;3.93;3.63;;;;;;;;;;5093512;28;20508;-78
2022/09/29 03:01:13;;;;;;;3.63;3.43;;;;;;;;;;5093553;28;20461;-79
2022/09/29 03:03:39;;;;;;;3.40;3.20;;;;;;;;;;5092314;28;20417;-79
2022/09/29 03:06:06;;;;;;;4.30;3.90;;;;;;;;;;5093541;28;20770;-79
2022/09/29 03:08:32;;;;;;;4.50;3.97;;;;;;;;;;5093524;28;20415;-79
2022/09/29 03:10:58;;;;;;;6.83;3.97;;;;;;;;;;5093556;28;20401;-79
2022/09/29 03:13:24;;;;;;;3.90;3.60;;;;;;;;;;5093408;28;20433;-78
2022/09/29 03:15:50;;;;;;;3.40;3.20;;;;;;;;;;5092147;28;20410;-78
2022/09/29 03:18:16;;;;;;;4.27;3.87;;;;;;;;;;5092168;28;20424;-78
2022/09/29 03:20:42;;;;;;;4.80;3.77;;;;;;;;;;5092064;28;20476;-79
2022/09/29 03:23:08;;;;;;;3.27;3.17;;;;;;;;;;5093405;28;20402;-79
2022/09/29 03:25:34;;;;;;;3.90;3.57;;;;;;;;;;5092138;28;20413;-79
2022/09/29 03:28:00;;;;;;;4.50;4.10;;;;;;;;;;5093296;28;20415;-79
2022/09/29 03:30:26;;;;;;;4.77;4.00;;;;;;;;;;5093337;28;20463;-79
2022/09/29 03:32:52;;;;;;;4.30;3.93;;;;;;;;;;5093340;28;20401;-79
2022/09/29 03:35:18;;;;;;;3.80;3.70;;;;;;;;;;5093331;28;20968;-79
2022/09/29 03:37:44;;;;;;;3.63;3.53;;;;;;;;;;5093202;28;20405;-79
2022/09/29 03:40:11;;;;;;;13.80;3.60;;;;;;;;;;5093497;28;21072;-79
2022/09/29 03:42:37;;;;;;;4.00;3.70;;;;;;;;;;5093184;28;20401;-79
2022/09/29 03:45:03;;;;;;;3.20;3.10;;;;;;;;;;5091861;28;20417;-79
2022/09/29 03:47:29;;;;;;;3.53;3.43;;;;;;;;;;5093143;28;20451;-79
2022/09/29 03:49:55;;;;;;;3.73;3.30;;;;;;;;;;5095078;28;20416;-79
2022/09/29 03:52:21;;;;;;;6.30;3.50;;;;;;;;;;5096971;28;20417;-78
2022/09/29 03:54:47;;;;;;;16.23;12.57;;;;;;;;;;5097007;28;20551;-79
2022/09/29 03:57:13;;;;;;;7.67;6.97;;;;;;;;;;5096899;28;20451;-79
2022/09/29 03:59:38;;;;;;;7.60;6.90;;;;;;;;;;5096739;28;20412;-79
2022/09/29 04:02:05;;;;;;;4.77;4.47;;;;;;;;;;5095427;28;20472;-79
2022/09/29 04:04:30;;;;;;;3.03;2.83;;;;;;;;;;5096652;28;20432;-79
2022/09/29 04:06:56;;;;;;;3.40;3.30;;;;;;;;;;5096661;28;20436;-78
2022/09/29 04:09:22;;;;;;;3.20;3.00;;;;;;;;;;5095378;28;20470;-79
2022/09/29 04:11:48;;;;;;;4.83;3.03;;;;;;;;;;5096561;28;20500;-79
2022/09/29 04:14:14;;;;;;;3.97;3.77;;;;;;;;;;5095174;28;20424;-79
2022/09/29 04:16:40;;;;;;;24.63;18.13;;;;;;;;;;5096798;28;20413;-78
2022/09/29 04:19:06;;;;;;;58.50;41.83;;;;;;;;;;5096492;28;20421;-79
2022/09/29 04:21:32;;;;;;;16.50;13.87;;;;;;;;;;5096406;28;20537;-79
2022/09/29 04:23:58;;;;;;;6.17;5.80;;;;;;;;;;5096353;28;20761;-79
2022/09/29 04:26:24;;;;;;;4.77;3.17;;;;;;;;;;5096328;28;20416;-79
2022/09/29 04:28:50;;;;;;;4.53;2.90;;;;;;;;;;5096258;28;20416;-79
2022/09/29 04:31:16;;;;;;;3.00;2.90;;;;;;;;;;5096251;28;20389;-79
2022/09/29 04:33:42;;;;;;;3.17;2.97;;;;;;;;;;5096206;28;20915;-79
2022/09/29 04:36:08;;;;;;;4.43;2.80;;;;;;;;;;5096145;28;20393;-79
2022/09/29 04:38:34;;;;;;;3.37;3.17;;;;;;;;;;5094780;28;20409;-79
2022/09/29 04:41:00;;;;;;;3.13;2.93;;;;;;;;;;5096239;28;20465;-79
2022/09/29 04:43:26;;;;;;;3.30;3.10;;;;;;;;;;5094903;28;20417;-78
2022/09/29 04:45:52;;;;;;;3.43;3.10;;;;;;;;;;5095977;28;20407;-78
2022/09/29 04:48:18;;;;;;;3.57;3.47;;;;;;;;;;5095897;28;20413;-79
2022/09/29 04:50:44;;;;;;;6.90;3.47;;;;;;;;;;5095877;28;20462;-79
2022/09/29 04:53:11;;;;;;;5.00;4.30;;;;;;;;;;5094516;28;20420;-79
2022/09/29 04:55:37;;;;;;;3.33;3.03;;;;;;;;;;5095614;28;20485;-78
2022/09/29 04:58:03;;;;;;;9.77;3.57;;;;;;;;;;5094324;28;20405;-79
2022/09/29 05:00:31;;;;;;;3.93;3.50;;;;;;;;;;5093959;28;20510;-78
2022/09/29 05:02:57;;;;;;;3.97;3.67;;;;;;;;;;5095641;28;20400;-79
2022/09/29 05:05:23;;;;;;;4.63;3.73;;;;;;;;;;5095552;28;20409;-78
2022/09/29 05:07:49;;;;;;;4.20;3.90;;;;;;;;;;5095467;28;20405;-78
2022/09/29 05:10:15;;;;;;;4.57;4.10;;;;;;;;;;5095581;28;20602;-78
2022/09/29 05:12:46;;;;;;;4.90;3.83;;;;;;;;;;5094143;28;21108;-79
2022/09/29 05:15:12;;;;;;;4.83;3.97;;;;;;;;;;5095308;28;20508;-79
2022/09/29 05:17:38;;;;;;;4.67;4.10;;;;;;;;;;5095322;28;20502;-78
2022/09/29 05:20:04;;;;;;;6.57;5.97;;;;;;;;;;5095215;28;20460;-80
2022/09/29 05:22:30;;;;;;;8.43;4.70;;;;;;;;;;5094000;28;20445;-82
2022/09/29 05:24:56;;;;;;;39.43;31.53;;;;;;;;;;5095415;28;20542;-82
2022/09/29 05:27:22;;;;;;;4.83;4.63;;;;;;;;;;5095842;28;20417;-79
2022/09/29 05:29:48;;;;;;;9.33;7.80;;;;;;;;;;5093926;28;20421;-82
2022/09/29 05:32:14;;;;;;;6.97;5.63;;;;;;;;;;5093821;28;20436;-80
2022/09/29 05:34:40;;;;;;;4.70;4.30;;;;;;;;;;5093808;28;20447;-79
2022/09/29 05:37:06;;;;;;;5.03;4.53;;;;;;;;;;5094976;28;20948;-80
2022/09/29 05:39:33;;;;;;;3.80;3.60;;;;;;;;;;5094959;28;20409;-85
2022/09/29 05:42:00;;;;;;;4.00;3.90;;;;;;;;;;5094742;28;20492;-79
2022/09/29 05:44:26;;;;;;;7.90;3.90;;;;;;;;;;5094770;28;20780;-78
2022/09/29 05:46:52;;;;;;;8.97;4.20;;;;;;;;;;5094786;28;20405;-82
2022/09/29 05:49:18;;;;;;;5.47;4.32;;;;;;;;;;5093907;28;20420;-76
2022/09/29 05:51:44;;;;;;;4.77;4.40;;;;;;;;;;5094721;28;20223;-76
2022/09/29 05:54:10;;;;;;;4.10;3.80;;;;;;;;;;5094334;28;20481;-77
2022/09/29 05:56:36;;;;;;;4.70;4.17;;;;;;;;;;5094599;28;20405;-77
2022/09/29 05:59:02;;;;;;;3.20;3.10;;;;;;;;;;5093200;28;20409;-79
2022/09/29 06:01:28;;;;;;;3.83;3.63;;;;;;;;;;5094414;28;20497;-77
2022/09/29 06:03:55;;;;;;;4.00;3.80;;;;;;;;;;5093190;28;20445;-78
2022/09/29 06:06:22;;;;;;;3.67;3.47;;;;;;;;;;5093127;28;21009;-77
2022/09/29 06:08:49;;;;;;;19.40;17.33;;;;;;;;;;5094361;28;20405;-78
2022/09/29 06:11:16;;;;;;;23.53;18.30;;;;;;;;;;5094070;28;20409;-80
2022/09/29 06:13:44;;;;;;;19.13;11.80;;;;;;;;;;5080925;28;20428;-79
2022/09/29 06:16:10;;;;;;;4.43;4.20;;;;;;;;;;5073902;28;20448;-79
2022/09/29 06:18:36;;;;;;;20.23;8.77;;;;;;;;;;5073996;28;20407;-80
2022/09/29 06:21:02;;;;;;;50.17;40.37;;;;;;;;;;5072470;28;20576;-80
2022/09/29 06:23:28;;;;;;;15.37;13.67;;;;;;;;;;5073861;28;20933;-77
2022/09/29 06:25:57;;;;;;;5.60;4.63;;;;;;;;;;5073772;28;20485;-80
2022/09/29 06:28:23;;;;;;;5.40;5.10;;;;;;;;;;5073670;28;20504;-78
2022/09/29 06:30:49;;;;;;;11.70;7.57;;;;;;;;;;5073783;28;20430;-79
2022/09/29 06:33:16;;;;;;;8.67;7.77;;;;;;;;;;5073661;28;20417;-79
2022/09/29 06:38:31;;;;;;;11.13;7.83;;;;;;;;;;5073630;28;20440;-77
2022/09/29 06:40:57;;;;;;;11.90;8.00;;;;;;;;;;5073486;28;20594;-78
2022/09/29 06:43:23;;;;;;;8.23;7.30;;;;;;;;;;5073532;28;20501;-78
2022/09/29 06:45:49;;;;;;;6.60;5.30;;;;;;;;;;5073580;28;20406;-78
2022/09/29 06:48:15;;;;;;;4.87;4.43;;;;;;;;;;5073507;28;20406;-76
2022/09/29 06:50:41;;;;;;;4.17;4.03;;;;;;;;;;5073715;28;20495;-78
2022/09/29 06:53:07;;;;;;;3.50;3.40;;;;;;;;;;5073734;28;20401;-79
2022/09/29 06:55:33;;;;;;;3.60;3.50;;;;;;;;;;5073310;28;20465;-77
2022/09/29 06:57:59;;;;;;;3.43;3.33;;;;;;;;;;5073463;28;20394;-76
2022/09/29 07:00:25;;;;;;;3.30;3.20;;;;;;;;;;5073203;28;20453;-78
2022/09/29 07:02:51;;;;;;;4.30;3.90;;;;;;;;;;5073345;28;20881;-79
2022/09/29 07:05:17;;;;;;;4.27;3.90;;;;;;;;;;5072101;28;20414;-78
2022/09/29 07:07:43;;;;;;;4.07;3.80;;;;;;;;;;5071970;28;20433;-79
2022/09/29 07:10:09;;;;;;;3.80;3.70;;;;;;;;;;5073388;28;20414;-76
2022/09/29 07:12:35;;;;;;;4.97;4.50;;;;;;;;;;5073195;28;20410;-78
2022/09/29 07:15:01;;;;;;;6.00;4.10;;;;;;;;;;5071971;28;20426;-77
2022/09/29 07:17:27;;;;;;;7.27;4.30;;;;;;;;;;5073240;28;20430;-77
2022/09/29 07:19:54;;;;;;;4.60;4.37;;;;;;;;;;5073149;28;20403;-77
2022/09/29 07:22:20;;;;;;;4.37;4.07;;;;;;;;;;5073239;28;20433;-77
2022/09/29 07:24:47;;;;;;;4.20;4.00;;;;;;;;;;5076699;28;20871;-77
2022/09/29 07:27:13;;;;;;;4.50;4.20;;;;;;;;;;5077280;28;20394;-77
2022/09/29 07:29:39;;;;;;;3.93;3.70;;;;;;;;;;5077101;28;20409;-77
2022/09/29 07:32:05;;;;;;;4.20;3.90;;;;;;;;;;5077024;28;20452;-77
2022/09/29 07:34:31;;;;;;;4.80;4.10;;;;;;;;;;5077140;28;20904;-77
2022/09/29 07:36:57;;;;;;;4.10;4.00;;;;;;;;;;5077013;28;20410;-75
2022/09/29 07:39:23;;;;;;;5.83;5.00;;;;;;;;;;5075688;28;20461;-75
2022/09/29 07:41:50;;;;;;;4.50;4.40;;;;;;;;;;5076875;28;20526;-76
2022/09/29 07:44:16;;;;;;;5.43;4.10;;;;;;;;;;5076793;28;20835;-75
2022/09/29 07:46:42;;;;;;;6.87;3.70;;;;;;;;;;5076797;28;20449;-76
2022/09/29 07:49:09;;;;;;;12.30;4.57;;;;;;;;;;5076760;28;20437;-76
2022/09/29 07:51:35;;;;;;;3.97;3.67;;;;;;;;;;5076713;28;20463;-77
2022/09/29 07:54:02;;;;;;;4.23;3.93;;;;;;;;;;5076637;28;20406;-77
2022/09/29 07:56:28;;;;;;;5.07;4.70;;;;;;;;;;5076425;28;20469;-76
2022/09/29 07:58:55;;;;;;;4.60;4.40;;;;;;;;;;5076539;28;20440;-75
2022/09/29 08:01:21;;;;;;;6.50;5.20;;;;;;;;;;5076390;28;20472;-76
2022/09/29 08:03:52;;;;;;;5.13;4.83;;;;;;;;;;5076457;28;20413;-74
2022/09/29 08:06:18;;;;;;;5.10;4.80;;;;;;;;;;5075200;28;20905;-77
2022/09/29 08:08:44;;;;;;;4.13;3.83;;;;;;;;;;5076356;28;20410;-73
2022/09/29 08:11:11;;;;;;;6.20;4.80;;;;;;;;;;5076295;28;20402;-73
2022/09/29 08:13:37;;;;;;;5.00;4.47;;;;;;;;;;5076192;28;20425;-73
2022/09/29 08:16:04;;;;;;;4.80;4.40;;;;;;;;;;5076313;28;20413;-73
2022/09/29 08:18:31;;;;;;;5.03;4.40;;;;;;;;;;5076500;28;20406;-72
2022/09/29 08:20:57;;;;;;;4.90;4.63;;;;;;;;;;5076130;28;20525;-76
2022/09/29 08:23:23;;;;;;;4.90;4.50;;;;;;;;;;5074850;28;20430;-74
2022/09/29 08:25:50;;;;;;;5.23;4.83;;;;;;;;;;5076112;28;20402;-74
2022/09/29 08:28:16;;;;;;;4.97;4.73;;;;;;;;;;5074717;28;20425;-75
2022/09/29 08:30:42;;;;;;;4.20;3.80;;;;;;;;;;5076015;28;20406;-74
2022/09/29 08:33:13;;;;;;;5.33;4.27;;;;;;;;;;5075990;28;20406;-75
2022/09/29 08:35:39;;;;;;;4.20;4.03;;;;;;;;;;5075241;28;20881;-74
2022/09/29 08:38:05;;;;;;;4.50;4.30;;;;;;;;;;5074482;28;20413;-73
2022/09/29 08:40:31;;;;;;;3.63;3.53;;;;;;;;;;5075947;28;20993;-75
2022/09/29 08:43:03;;;;;;;7.50;4.57;;;;;;;;;;5075694;28;20893;-73
2022/09/29 08:45:32;;;;;;;5.57;5.00;;;;;;;;;;5075603;28;20901;-76
2022/09/29 08:48:17;;;;;;;4.73;4.53;;;;;;;;;;5075664;28;20781;-75
2022/09/29 08:50:46;;;;;;;6.80;4.90;;;;;;;;;;5075643;28;20414;-76
2022/09/29 08:53:16;;;;;;;5.13;4.83;;;;;;;;;;5075494;28;20398;-75
2022/09/29 08:55:47;;;;;;;6.57;5.97;;;;;;;;;;5075392;28;20485;-74
2022/09/29 08:58:15;;;;;;;7.63;6.90;;;;;;;;;;5074211;28;20430;-73
2022/09/29 09:00:41;;;;;;;4.43;4.20;;;;;;;;;;5075346;28;20826;-74
2022/09/29 09:03:25;;;;;;;5.87;5.50;;;;;;;;;;5075433;28;20485;-75
2022/09/29 09:06:27;;;;;;;5.97;5.50;;;;;;;;;;5075272;28;20406;-76
2022/09/29 09:09:12;;;;;;;4.20;3.93;;;;;;;;;;5053123;28;20436;-75
2022/09/29 09:12:02;;;;;;;3.47;3.30;;;;;;;;;;5073583;28;20419;-74
2022/09/29 09:14:28;;;;;;;5.17;4.60;;;;;;;;;;5075138;28;20405;-75
2022/09/29 09:16:53;;;;;;;6.83;5.63;;;;;;;;;;5075016;28;20915;-75
2022/09/29 09:19:30;;;;;;;3.87;3.67;;;;;;;;;;5075078;28;20411;-75
2022/09/29 09:22:00;;;;;;;4.37;3.97;;;;;;;;;;5074819;28;20465;-74
2022/09/29 09:24:46;;;;;;;4.60;4.40;;;;;;;;;;5074892;28;20874;-76
2022/09/29 09:27:14;;;;;;;9.13;4.07;;;;;;;;;;5073552;28;20422;-75
2022/09/29 09:29:43;;;;;;;8.00;4.30;;;;;;;;;;5074834;28;20410;-74
2022/09/29 09:32:11;;;;;;;4.00;3.70;;;;;;;;;;5074948;28;20396;-77
2022/09/29 09:34:46;;;;;;;4.00;3.77;;;;;;;;;;5073572;28;20868;-75
2022/09/29 09:37:26;;;;;;;4.33;3.97;;;;;;;;;;5074641;28;20484;-75
2022/09/29 09:39:57;;;;;;;4.60;4.30;;;;;;;;;;5074698;28;20497;-75
2022/09/29 09:42:26;;;;;;;4.40;4.10;;;;;;;;;;5074571;28;20418;-75
2022/09/29 09:44:56;;;;;;;5.53;4.27;;;;;;;;;;5074517;28;20418;-76
2022/09/29 09:47:25;;;;;;;5.10;3.97;;;;;;;;;;5073600;28;20406;-77
2022/09/29 09:49:55;;;;;;;4.30;3.60;;;;;;;;;;5073218;28;20457;-77
2022/09/29 09:52:23;;;;;;;6.33;4.00;;;;;;;;;;5074357;28;20417;-76
2022/09/29 09:54:52;;;;;;;3.73;3.43;;;;;;;;;;5072956;28;20471;-79
2022/09/29 09:57:37;;;;;;;3.80;3.37;;;;;;;;;;5074333;28;20414;-78
2022/09/29 10:00:23;;;;;;;3.73;3.50;;;;;;;;;;5074149;28;20804;-78
2022/09/29 10:02:50;;;;;;;3.63;3.40;;;;;;;;;;5074188;28;20417;-79
2022/09/29 10:05:17;;;;;;;8.70;3.37;;;;;;;;;;5074115;28;20913;-78
2022/09/29 10:07:44;;;;;;;3.50;3.30;;;;;;;;;;5074438;28;20407;-78
2022/09/29 10:10:15;;;;;;;3.50;3.20;;;;;;;;;;5074226;28;20398;-76
2022/09/29 10:12:41;;;;;;;4.47;4.00;;;;;;;;;;5072598;28;20432;-76
2022/09/29 10:15:25;;;;;;;3.07;2.97;;;;;;;;;;5073908;28;20895;-74
2022/09/29 10:17:59;;;;;;;3.37;3.17;;;;;;;;;;5072623;28;20437;-73
2022/09/29 10:20:29;;;;;;;3.10;2.90;;;;;;;;;;5073852;28;20452;-75
2022/09/29 10:23:13;;;;;;;3.03;2.37;;;;;;;;;;5073922;28;20410;-77
2022/09/29 10:25:39;;;;;;;2.40;2.30;;;;;;;;;;5073830;28;20964;-75
2022/09/29 10:28:06;;;;;;;2.00;1.80;;;;;;;;;;5073772;28;20442;-73
2022/09/29 10:30:34;;;;;;;2.60;2.40;;;;;;;;;;5076578;28;20437;-74
2022/09/29 10:33:01;;;;;;;3.60;2.63;;;;;;;;;;5074518;28;20410;-75
2022/09/29 10:35:38;;;;;;;7.93;2.30;;;;;;;;;;5072410;28;20929;-73
2022/09/29 10:38:06;;;;;;;2.87;2.67;;;;;;;;;;5073610;28;20409;-73
2022/09/29 10:40:32;;;;;;;2.47;2.30;;;;;;;;;;5073594;28;20976;-74
2022/09/29 10:42:59;;;;;;;2.73;2.20;;;;;;;;;;5073578;28;20447;-73
2022/09/29 10:45:26;;;;;;;2.10;2.00;;;;;;;;;;5073485;28;20402;-73
2022/09/29 10:47:58;;;;;;;2.30;2.20;;;;;;;;;;5073488;28;20448;-73
2022/09/29 10:50:32;;;;;;;2.97;1.77;;;;;;;;;;5073512;28;20393;-73
2022/09/29 10:52:59;;;;;;;2.00;1.90;;;;;;;;;;5072178;28;20418;-73
2022/09/29 10:55:29;;;;;;;6.10;2.10;;;;;;;;;;5073225;28;20463;-73
2022/09/29 10:57:57;;;;;;;2.53;2.43;;;;;;;;;;5073121;28;20414;-74
2022/09/29 11:00:33;;;;;;;2.27;2.20;;;;;;;;;;5073314;28;21036;-75
2022/09/29 11:03:29;;;;;;;2.10;2.10;;;;;;;;;;5073369;28;20453;-78
2022/09/29 11:06:02;;;;;;;4.23;1.50;;;;;;;;;;5068872;28;20418;-72
2022/09/29 11:08:29;;;;;;;2.50;1.30;;;;;;;;;;5073351;28;20434;-72
2022/09/29 11:11:27;;;;;;;1.67;1.33;;;;;;;;;;5073295;28;20414;-72
2022/09/29 11:13:54;;;;;;;1.20;1.10;;;;;;;;;;5061130;28;20426;-72
2022/09/29 11:16:29;;;;;;;1.30;1.30;;;;;;;;;;5073282;28;20405;-73
2022/09/29 11:18:58;;;;;;;2.03;1.20;;;;;;;;;;5073289;28;20405;-74
2022/09/29 11:21:43;;;;;;;1.50;1.50;;;;;;;;;;5073153;28;20979;-71
2022/09/29 11:24:09;;;;;;;1.33;1.33;;;;;;;;;;5073311;28;20402;-73
2022/09/29 11:26:40;;;;;;;1.20;1.20;;;;;;;;;;5073288;28;20783;-71
2022/09/29 11:29:09;;;;;;;2.87;1.50;;;;;;;;;;5073190;28;20465;-70
2022/09/29 11:31:43;;;;;;;1.50;1.40;;;;;;;;;;5073185;28;20397;-69
2022/09/29 11:34:15;;;;;;;1.30;1.30;;;;;;;;;;5071874;28;20467;-70
2022/09/29 11:37:03;;;;;;;1.20;1.20;;;;;;;;;;5071837;28;20414;-71
2022/09/29 11:39:34;;;;;;;1.47;1.37;;;;;;;;;;5073012;28;20844;-71
2022/09/29 11:42:18;;;;;;;1.60;1.50;;;;;;;;;;5072963;28;20484;-70
2022/09/29 11:45:00;;;;;;;1.77;1.67;;;;;;;;;;5071645;28;20426;-74
2022/09/29 11:47:36;;;;;;;1.60;1.50;;;;;;;;;;5072967;28;20403;-73
2022/09/29 11:50:20;;;;;;;1.10;1.10;;;;;;;;;;5073010;28;20405;-75
2022/09/29 11:52:55;;;;;;;1.20;1.10;;;;;;;;;;5071536;28;20433;-73
2022/09/29 11:55:21;;;;;;;2.53;1.20;;;;;;;;;;5072666;28;20574;-72
2022/09/29 11:57:54;;;;;;;2.20;1.90;;;;;;;;;;5071563;28;20935;-73
2022/09/29 12:00:21;;;;;;;6.97;6.40;;;;;;;;;;5072704;28;21028;-74
2022/09/29 12:03:06;;;;;;;4.63;3.20;;;;;;;;;;5072746;28;20756;-72
2022/09/29 12:05:33;;;;;;;1.57;1.47;;;;;;;;;;5071441;28;20832;-73
2022/09/29 12:08:17;;;;;;;1.93;1.93;;;;;;;;;;5072740;28;20418;-73
2022/09/29 12:11:09;;;;;;;1.47;1.47;;;;;;;;;;5074332;28;20414;-74
2022/09/29 12:13:35;;;;;;;2.33;1.40;;;;;;;;;;5075125;28;20488;-73
2022/09/29 12:16:09;;;;;;;1.53;1.50;;;;;;;;;;5076330;28;20494;-74
2022/09/29 12:18:40;;;;;;;1.33;1.33;;;;;;;;;;5074995;28;20422;-71
2022/09/29 12:21:08;;;;;;;2.27;1.43;;;;;;;;;;5076106;28;20874;-73
2022/09/29 12:23:38;;;;;;;1.80;1.70;;;;;;;;;;5076188;28;20781;-75
2022/09/29 12:26:09;;;;;;;2.20;1.80;;;;;;;;;;5076189;28;20466;-74
2022/09/29 12:28:50;;;;;;;2.53;2.10;;;;;;;;;;5076025;28;20416;-79
2022/09/29 12:31:22;;;;;;;3.57;3.47;;;;;;;;;;5076039;28;20473;-75
2022/09/29 12:34:05;;;;;;;3.60;3.50;;;;;;;;;;5076006;28;20937;-75
2022/09/29 12:36:49;;;;;;;3.57;3.47;;;;;;;;;;5075910;28;20410;-75
2022/09/29 12:39:20;;;;;;;3.03;2.80;;;;;;;;;;5075903;28;20419;-76
2022/09/29 12:42:06;;;;;;;2.83;2.63;;;;;;;;;;5075810;28;20469;-73
2022/09/29 12:44:44;;;;;;;2.23;2.23;;;;;;;;;;5075757;28;20447;-74
2022/09/29 12:47:18;;;;;;;2.20;2.20;;;;;;;;;;5075761;28;20407;-74
2022/09/29 12:49:44;;;;;;;2.43;2.33;;;;;;;;;;5075739;28;21024;-73
2022/09/29 12:52:15;;;;;;;2.47;2.27;;;;;;;;;;5075697;28;20397;-73
2022/09/29 12:54:50;;;;;;;2.07;2.07;;;;;;;;;;5075483;28;20455;-73
2022/09/29 12:57:36;;;;;;;5.03;2.53;;;;;;;;;;5075468;28;20403;-73
2022/09/29 13:00:02;;;;;;;2.77;2.10;;;;;;;;;;5075336;28;20420;-74
2022/09/29 13:02:39;;;;;;;3.80;2.33;;;;;;;;;;5075342;28;20423;-73
2022/09/29 13:05:05;;;;;;;1.67;1.67;;;;;;;;;;5075372;28;20455;-75
2022/09/29 13:07:50;;;;;;;1.73;1.63;;;;;;;;;;5075347;28;20409;-74
2022/09/29 13:10:21;;;;;;;2.23;2.13;;;;;;;;;;5075149;28;20431;-75
2022/09/29 13:13:06;;;;;;;1.77;1.77;;;;;;;;;;5075104;28;20404;-74
2022/09/29 13:15:52;;;;;;;2.20;2.20;;;;;;;;;;5073797;28;20458;-73
2022/09/29 13:18:30;;;;;;;3.50;3.20;;;;;;;;;;5064066;28;20456;-71
2022/09/29 13:21:14;;;;;;;2.03;2.03;;;;;;;;;;5074739;28;20493;-72
2022/09/29 13:23:48;;;;;;;1.57;1.57;;;;;;;;;;5074970;28;20415;-73
2022/09/29 13:26:26;;;;;;;5.17;2.10;;;;;;;;;;5074957;28;20413;-73
2022/09/29 13:28:56;;;;;;;1.70;1.70;;;;;;;;;;5074807;28;20496;-72
2022/09/29 13:31:24;;;;;;;1.70;1.70;;;;;;;;;;5074876;28;20416;-72
2022/09/29 13:33:52;;;;;;;1.50;1.40;;;;;;;;;;5073522;28;20518;-72
2022/09/29 13:36:24;;;;;;;1.70;1.70;;;;;;;;;;5074877;28;20415;-73
2022/09/29 13:38:54;;;;;;;1.77;1.77;;;;;;;;;;5074650;28;20404;-73
2022/09/29 13:41:23;;;;;;;1.53;1.43;;;;;;;;;;5073156;28;21060;-72
2022/09/29 13:43:49;;;;;;;1.80;1.70;;;;;;;;;;5074591;28;20462;-73
2022/09/29 13:46:25;;;;;;;1.30;1.23;;;;;;;;;;5074527;28;20918;-73
2022/09/29 13:48:53;;;;;;;1.77;1.77;;;;;;;;;;5074460;28;20428;-74
2022/09/29 13:51:23;;;;;;;1.50;1.43;;;;;;;;;;5073080;28;20411;-73
2022/09/29 13:54:09;;;;;;;1.43;1.43;;;;;;;;;;5073025;28;20420;-72
2022/09/29 13:56:35;;;;;;;2.13;2.03;;;;;;;;;;5074185;28;20439;-72
2022/09/29 13:59:01;;;;;;;2.50;2.30;;;;;;;;;;5074260;28;20419;-72
2022/09/29 14:01:30;;;;;;;3.63;1.77;;;;;;;;;;5072908;28;20538;-73
2022/09/29 14:03:57;;;;;;;1.50;1.50;;;;;;;;;;5074147;28;20404;-74
2022/09/29 14:06:24;;;;;;;1.67;1.57;;;;;;;;;;5074260;28;20879;-73
2022/09/29 14:09:02;;;;;;;1.60;1.60;;;;;;;;;;5074084;28;20427;-73
2022/09/29 14:11:28;;;;;;;3.77;1.60;;;;;;;;;;5074069;28;20432;-73
2022/09/29 14:14:00;;;;;;;3.43;2.10;;;;;;;;;;5074005;28;20495;-73
2022/09/29 14:16:41;;;;;;;9.30;8.43;;;;;;;;;;5073974;28;20885;-73
2022/09/29 14:19:13;;;;;;;1.67;1.60;;;;;;;;;;5072641;28;20528;-73
2022/09/29 14:21:50;;;;;;;3.27;3.07;;;;;;;;;;5072507;28;20476;-73
2022/09/29 14:24:44;;;;;;;1.97;1.87;;;;;;;;;;5073867;28;20397;-73
2022/09/29 14:27:16;;;;;;;5.50;5.20;;;;;;;;;;5072508;28;20416;-72
2022/09/29 14:29:44;;;;;;;13.80;12.20;;;;;;;;;;5072368;28;20428;-74
2022/09/29 14:32:14;;;;;;;2.97;2.87;;;;;;;;;;5073664;28;20435;-72
2022/09/29 14:34:40;;;;;;;6.87;6.37;;;;;;;;;;5073404;28;20412;-73
2022/09/29 14:37:14;;;;;;;5.43;5.03;;;;;;;;;;5073440;28;20409;-74
2022/09/29 14:39:40;;;;;;;432.10;192.47;;;;;;;;;;5073560;28;20431;-75
2022/09/29 14:42:16;;;;;;;69.67;29.40;;;;;;;;;;5073510;28;20471;-73
2022/09/29 14:53:25;;;;;;;3.53;3.27;;;;;;;;;;5073709;28;20426;-75
2022/09/29 14:55:53;;;;;;;56.13;29.93;;;;;;;;;;5072023;28;20779;-77
2022/09/29 14:58:37;;;;;;;20.93;15.10;;;;;;;;;;5073427;28;20780;-73
2022/09/29 15:01:09;;;;;;;8.77;7.87;;;;;;;;;;5086667;28;20531;-75
2022/09/29 15:03:41;;;;;;;2.97;2.73;;;;;;;;;;5091121;28;20423;-76
2022/09/29 15:06:10;;;;;;;4.03;1.43;;;;;;;;;;5088746;28;20424;-74
2022/09/29 15:08:38;;;;;;;2.10;2.00;;;;;;;;;;5090890;28;20457;-74